Time;durP1;ratioP1;P1;durP2;ratioP2;P2;SDS_P1;SDS_P2;PMS_P1;PMS_P2;Temp;Humidity;BMP_temperature;BMP_pressure;BME280_temperature;BME280_humidity;BME280_pressure;Samples;Min_cycle;Max_cycle;Signal;HPM_P1;HPM_P2
2023/08/29 00:01:41;;;;;;;12.73;5.55;;;;;;;15.67;81.67;100694.97;4973857;28;20058;-44
2023/08/29 00:04:08;;;;;;;8.00;3.60;;;;;;;15.66;81.67;100687.75;4973686;28;20327;-45
2023/08/29 00:06:35;;;;;;;10.98;4.00;;;;;;;15.65;81.76;100674.97;4973718;28;20489;-47
2023/08/29 00:09:03;;;;;;;9.07;3.80;;;;;;;15.62;81.80;100675.75;4973940;28;20057;-44
2023/08/29 00:11:30;;;;;;;10.68;4.25;;;;;;;15.59;81.94;100671.75;4974128;28;20038;-45
2023/08/29 00:13:58;;;;;;;6.75;3.42;;;;;;;15.56;82.04;100664.13;4972738;28;20050;-44
2023/08/29 00:16:24;;;;;;;7.50;3.72;;;;;;;15.54;82.12;100660.13;4972653;28;20042;-44
2023/08/29 00:18:51;;;;;;;7.50;3.55;;;;;;;15.50;82.34;100662.03;4972702;28;20050;-45
2023/08/29 00:21:18;;;;;;;5.75;3.67;;;;;;;15.47;82.44;100676.75;4972119;28;20042;-44
2023/08/29 00:23:47;;;;;;;9.65;3.83;;;;;;;15.40;82.51;100682.22;4970338;28;20051;-46
2023/08/29 00:26:14;;;;;;;9.88;4.10;;;;;;;15.35;82.82;100682.56;4971391;28;20052;-45
2023/08/29 00:28:41;;;;;;;5.82;4.05;;;;;;;15.30;83.26;100675.34;4973317;28;20050;-47
2023/08/29 00:31:08;;;;;;;12.30;4.53;;;;;;;15.33;83.32;100680.13;4972335;28;20100;-44
2023/08/29 00:33:35;;;;;;;11.05;3.92;;;;;;;15.34;83.53;100672.56;4972772;28;20061;-44
2023/08/29 00:36:02;;;;;;;6.10;4.10;;;;;;;15.38;83.77;100670.63;4971586;28;20058;-46
2023/08/29 00:38:29;;;;;;;5.85;3.55;;;;;;;15.39;83.54;100681.41;4971833;28;20057;-45
2023/08/29 00:40:55;;;;;;;10.55;4.65;;;;;;;15.39;83.81;100667.47;4972303;28;20051;-44
2023/08/29 00:43:22;;;;;;;8.27;3.60;;;;;;;15.39;83.72;100664.66;4971090;28;20042;-44
2023/08/29 00:45:49;;;;;;;8.20;4.18;;;;;;;15.39;83.76;100661.06;4973448;28;20416;-44
2023/08/29 00:48:16;;;;;;;6.22;3.97;;;;;;;15.38;83.83;100654.69;4973253;28;20505;-45
2023/08/29 00:50:44;;;;;;;6.82;4.00;;;;;;;15.39;84.06;100669.44;4973098;28;20055;-45
2023/08/29 00:53:11;;;;;;;7.22;4.20;;;;;;;15.38;83.86;100665.06;4971760;28;20051;-49
2023/08/29 00:55:37;;;;;;;8.07;4.28;;;;;;;15.37;84.01;100663.44;4972345;28;20047;-44
2023/08/29 00:58:05;;;;;;;5.57;3.92;;;;;;;15.37;84.05;100674.59;4955521;28;20054;-45
2023/08/29 01:00:32;;;;;;;7.57;4.63;;;;;;;15.37;84.14;100664.25;4971963;28;20473;-44
2023/08/29 01:03:02;;;;;;;7.68;3.88;;;;;;;15.39;84.11;100663.88;4964094;28;20051;-44
2023/08/29 01:05:29;;;;;;;7.95;3.78;;;;;;;15.41;84.10;100653.16;4952821;29;20043;-45
2023/08/29 01:07:59;;;;;;;7.85;4.20;;;;;;;15.41;84.19;100658.72;4953551;29;20050;-46
2023/08/29 01:10:30;;;;;;;6.45;3.83;;;;;;;15.41;84.06;100644.78;4953478;28;20085;-45
2023/08/29 01:13:15;;;;;;;7.60;4.30;;;;;;;15.40;84.28;100651.53;4953642;29;20113;-44
2023/08/29 01:15:47;;;;;;;10.57;5.38;;;;;;;15.38;84.20;100643.53;4953535;29;20039;-44
2023/08/29 01:18:17;;;;;;;10.52;3.90;;;;;;;15.36;84.31;100656.25;4953262;29;20055;-44
2023/08/29 01:20:45;;;;;;;10.25;4.22;;;;;;;15.39;84.45;100649.91;4951908;29;20047;-44
2023/08/29 01:23:33;;;;;;;11.05;4.57;;;;;;;15.38;84.52;100637.94;4952096;29;20400;-44
2023/08/29 01:26:14;;;;;;;16.98;6.50;;;;;;;15.39;84.60;100639.56;4953362;28;20054;-45
2023/08/29 01:28:43;;;;;;;12.10;5.82;;;;;;;15.40;84.61;100645.94;4967277;28;20158;-44
2023/08/29 01:31:11;;;;;;;12.38;5.85;;;;;;;15.40;84.60;100646.75;4951004;29;20047;-44
2023/08/29 01:33:39;;;;;;;13.10;5.22;;;;;;;15.36;84.60;100650.66;4952387;28;20043;-44
2023/08/29 01:36:07;;;;;;;13.75;5.50;;;;;;;15.34;85.00;100636.31;4952394;28;20508;-44
2023/08/29 01:38:34;;;;;;;9.77;4.95;;;;;;;15.36;84.87;100645.91;4967769;28;20047;-44
2023/08/29 01:41:01;;;;;;;8.40;4.57;;;;;;;15.37;84.93;100643.91;4952980;28;20054;-46
2023/08/29 01:43:28;;;;;;;9.30;4.82;;;;;;;15.37;85.03;100639.16;4953008;29;20382;-45
2023/08/29 01:45:55;;;;;;;10.45;6.05;;;;;;;15.37;85.10;100641.13;4953213;29;20055;-44
2023/08/29 01:48:22;;;;;;;9.88;5.00;;;;;;;15.33;85.03;100634.72;4952995;29;20094;-47
2023/08/29 01:50:49;;;;;;;18.40;7.72;;;;;;;15.27;85.22;100636.22;4952817;28;20051;-45
2023/08/29 01:53:15;;;;;;;8.30;5.35;;;;;;;15.21;85.47;100644.94;4945936;29;20589;-45
2023/08/29 01:55:43;;;;;;;9.13;4.90;;;;;;;15.19;85.57;100624.19;4951659;29;20533;-44
2023/08/29 01:58:12;;;;;;;8.82;5.10;;;;;;;15.14;85.67;100633.66;4952829;29;20061;-45
2023/08/29 02:00:40;;;;;;;16.08;6.45;;;;;;;15.12;85.75;100630.47;4951512;28;20039;-44
2023/08/29 02:03:09;;;;;;;8.50;4.32;;;;;;;15.12;85.85;100624.88;4972150;28;20055;-45
2023/08/29 02:05:36;;;;;;;9.45;5.22;;;;;;;15.09;85.97;100636.00;4971999;28;20576;-45
2023/08/29 02:08:05;;;;;;;13.82;5.13;;;;;;;15.09;85.97;100634.00;4973560;28;20061;-44
2023/08/29 02:10:32;;;;;;;7.70;4.40;;;;;;;15.12;86.20;100636.03;4976127;28;20054;-44
2023/08/29 02:12:59;;;;;;;13.40;5.07;;;;;;;15.16;86.27;100631.31;4974689;28;20062;-44
2023/08/29 02:15:26;;;;;;;9.25;4.43;;;;;;;15.16;86.18;100625.75;4975848;28;20051;-45
2023/08/29 02:17:54;;;;;;;9.10;4.43;;;;;;;15.16;86.22;100613.78;4976216;28;20043;-46
2023/08/29 02:20:21;;;;;;;9.68;5.35;;;;;;;15.14;86.17;100622.50;4967614;28;20050;-45
2023/08/29 02:22:48;;;;;;;11.63;5.20;;;;;;;15.12;86.36;100613.72;4976046;28;20042;-48
2023/08/29 02:25:15;;;;;;;8.73;5.50;;;;;;;15.14;86.28;100605.00;4976480;28;20049;-45
2023/08/29 02:27:42;;;;;;;8.20;4.00;;;;;;;15.13;86.49;100604.19;4958843;28;20493;-44
2023/08/29 02:30:10;;;;;;;11.18;4.97;;;;;;;15.12;86.40;100602.56;4974663;28;20518;-44
2023/08/29 02:32:38;;;;;;;7.38;5.40;;;;;;;15.10;86.68;100604.94;4974713;28;20047;-45
2023/08/29 02:35:06;;;;;;;7.53;4.45;;;;;;;15.09;86.72;100594.19;4975534;28;20113;-44
2023/08/29 02:37:34;;;;;;;8.88;4.57;;;;;;;15.07;86.86;100586.19;4975213;28;20058;-45
2023/08/29 02:40:07;;;;;;;8.15;5.32;;;;;;;15.09;86.92;100594.97;4975733;28;20133;-46
2023/08/29 02:42:35;;;;;;;9.95;4.40;;;;;;;15.06;86.95;100592.94;4975417;28;20497;-44
2023/08/29 02:45:03;;;;;;;6.95;4.53;;;;;;;15.05;87.02;100584.94;4974451;28;20123;-44
2023/08/29 02:47:30;;;;;;;11.50;4.95;;;;;;;15.03;87.13;100588.13;4975231;28;20145;-44
2023/08/29 02:49:57;;;;;;;7.40;4.78;;;;;;;15.02;87.37;100597.66;4971321;28;20050;-44
2023/08/29 02:52:24;;;;;;;8.35;4.78;;;;;;;14.99;87.36;100612.34;4972426;28;20055;-44
2023/08/29 02:54:51;;;;;;;11.07;4.75;;;;;;;14.99;87.56;100604.00;4975247;28;20067;-45
2023/08/29 02:57:17;;;;;;;16.55;6.53;;;;;;;14.97;87.59;100598.00;4973759;28;20519;-45
2023/08/29 02:59:44;;;;;;;8.18;5.38;;;;;;;14.95;87.88;100605.94;4973955;28;20042;-45
2023/08/29 03:02:12;;;;;;;8.88;4.38;;;;;;;14.90;88.01;100605.47;5098219;23;20060;-45
2023/08/29 03:04:39;;;;;;;8.23;5.07;;;;;;;14.90;88.19;100605.47;5014263;28;20107;-44
2023/08/29 03:07:07;;;;;;;8.63;4.68;;;;;;;14.86;88.26;100602.63;5012598;28;20041;-45
2023/08/29 03:09:34;;;;;;;9.77;4.57;;;;;;;14.87;88.19;100603.44;5012261;28;20050;-44
2023/08/29 03:12:02;;;;;;;9.57;4.57;;;;;;;14.88;88.23;100599.47;5013943;28;20133;-46
2023/08/29 03:14:29;;;;;;;7.32;4.45;;;;;;;14.87;88.37;100595.88;5014182;28;20050;-44
2023/08/29 03:16:57;;;;;;;9.40;4.45;;;;;;;14.88;88.32;100583.53;5012532;28;20050;-43
2023/08/29 03:19:24;;;;;;;8.57;4.55;;;;;;;14.90;88.44;100589.56;5012550;28;20050;-44
2023/08/29 03:21:51;;;;;;;14.32;6.20;;;;;;;14.90;88.28;100595.13;5013315;28;20045;-46
2023/08/29 03:24:17;;;;;;;9.40;4.53;;;;;;;14.87;88.29;100584.72;5013687;28;20065;-45
2023/08/29 03:26:44;;;;;;;11.05;4.20;;;;;;;14.87;88.35;100581.94;5013764;28;20415;-45
2023/08/29 03:29:11;;;;;;;8.15;4.22;;;;;;;14.86;88.32;100579.53;5013897;28;20419;-43
2023/08/29 03:31:38;;;;;;;8.15;4.22;;;;;;;14.84;88.35;100565.97;5013513;28;20129;-44
2023/08/29 03:34:06;;;;;;;12.15;7.05;;;;;;;14.83;88.56;100567.13;5012308;28;20046;-46
2023/08/29 03:36:33;;;;;;;8.23;4.53;;;;;;;14.81;88.56;100561.16;5013555;28;20104;-44
2023/08/29 03:39:02;;;;;;;12.45;4.32;;;;;;;14.81;88.60;100552.78;5013063;28;20050;-44
2023/08/29 03:41:29;;;;;;;11.10;4.72;;;;;;;14.77;88.63;100557.53;5013194;28;20514;-44
2023/08/29 03:43:56;;;;;;;10.52;4.50;;;;;;;14.76;88.59;100560.69;5013193;28;20058;-44
2023/08/29 03:46:24;;;;;;;8.55;4.47;;;;;;;14.75;88.77;100547.91;5012623;28;20394;-45
2023/08/29 03:48:51;;;;;;;9.90;4.35;;;;;;;14.74;88.86;100544.34;5013231;28;20049;-50
2023/08/29 03:51:18;;;;;;;15.13;6.22;;;;;;;14.75;88.77;100551.50;5013336;28;20056;-45
2023/08/29 03:53:45;;;;;;;7.93;4.78;;;;;;;14.74;88.87;100547.13;5013395;28;20145;-44
2023/08/29 03:56:13;;;;;;;10.38;5.15;;;;;;;14.74;88.96;100552.72;5011474;28;20129;-44
2023/08/29 03:58:39;;;;;;;9.57;4.80;;;;;;;14.74;88.95;100558.28;5013059;28;20045;-45
2023/08/29 04:01:07;;;;;;;9.63;4.13;;;;;;;14.71;88.95;100558.22;5012943;28;20058;-44
2023/08/29 04:03:34;;;;;;;9.52;5.07;;;;;;;14.69;89.37;100541.88;5013249;28;20391;-46
2023/08/29 04:06:03;;;;;;;10.90;4.60;;;;;;;14.71;89.30;100547.06;5013231;28;20053;-43
2023/08/29 04:08:30;;;;;;;13.65;5.78;;;;;;;14.70;89.29;100539.88;5013104;28;20054;-44
2023/08/29 04:10:58;;;;;;;10.68;4.60;;;;;;;14.66;89.33;100556.56;5012727;28;20061;-44
2023/08/29 04:13:25;;;;;;;9.05;4.85;;;;;;;14.65;89.59;100554.97;5012499;28;20144;-45
2023/08/29 04:15:52;;;;;;;9.52;4.30;;;;;;;14.65;89.39;100552.16;5013019;28;20092;-43
2023/08/29 04:18:20;;;;;;;10.43;4.43;;;;;;;14.65;89.66;100546.59;5010094;28;20140;-45
2023/08/29 04:20:47;;;;;;;13.63;5.07;;;;;;;14.63;89.63;100551.75;5012847;28;20038;-44
2023/08/29 04:23:14;;;;;;;11.75;5.30;;;;;;;14.62;89.80;100544.56;5012944;28;20399;-46
2023/08/29 04:25:41;;;;;;;10.68;4.68;;;;;;;14.63;89.80;100529.47;5013385;28;20050;-46
2023/08/29 04:28:07;;;;;;;8.35;4.13;;;;;;;14.64;89.91;100531.03;5012639;28;20101;-49
2023/08/29 04:30:35;;;;;;;14.60;5.28;;;;;;;14.60;89.69;100530.22;5012079;28;20049;-45
2023/08/29 04:33:03;;;;;;;16.38;4.25;;;;;;;14.56;89.90;100529.38;5012253;28;20446;-44
2023/08/29 04:35:30;;;;;;;12.57;4.22;;;;;;;14.54;89.83;100531.72;5012249;28;20144;-45
2023/08/29 04:37:57;;;;;;;8.80;4.38;;;;;;;14.52;89.88;100523.75;5012589;28;20050;-44
2023/08/29 04:40:24;;;;;;;9.65;4.05;;;;;;;14.52;89.89;100528.50;5012553;28;20757;-45
2023/08/29 04:42:51;;;;;;;11.02;4.55;;;;;;;14.49;90.01;100523.69;5012388;28;20536;-45
2023/08/29 04:45:19;;;;;;;8.77;3.90;;;;;;;14.48;90.08;100522.88;5012078;28;20037;-44
2023/08/29 04:47:45;;;;;;;10.80;4.45;;;;;;;14.48;89.62;100527.66;5011959;28;20507;-44
2023/08/29 04:50:14;;;;;;;8.55;4.22;;;;;;;14.48;90.18;100522.09;5011030;28;20061;-43
2023/08/29 04:52:41;;;;;;;8.77;4.03;;;;;;;14.48;90.03;100527.66;5010443;28;20054;-45
2023/08/29 04:55:08;;;;;;;8.45;3.72;;;;;;;14.45;90.18;100522.84;5012162;28;20054;-44
2023/08/29 04:57:36;;;;;;;9.15;3.92;;;;;;;14.45;90.01;100520.88;5011825;28;20041;-45
2023/08/29 05:00:05;;;;;;;14.05;5.35;;;;;;;14.44;90.03;100521.22;5012391;28;20056;-44
2023/08/29 05:02:32;;;;;;;8.60;4.03;;;;;;;14.39;90.12;100518.78;5011714;28;20081;-44
2023/08/29 05:04:59;;;;;;;13.13;4.47;;;;;;;14.35;89.82;100526.28;5012069;28;20077;-43
2023/08/29 05:07:26;;;;;;;6.30;3.90;;;;;;;14.31;89.96;100528.16;5011620;28;20140;-44
2023/08/29 05:09:54;;;;;;;10.07;4.53;;;;;;;14.26;90.16;100525.72;5010694;28;20057;-44
2023/08/29 05:12:21;;;;;;;9.40;4.50;;;;;;;14.22;90.11;100524.84;5010808;28;20041;-44
2023/08/29 05:14:48;;;;;;;7.25;4.25;;;;;;;14.18;90.25;100529.56;5010263;28;20046;-45
2023/08/29 05:17:16;;;;;;;11.13;4.25;;;;;;;14.14;90.15;100521.16;5006426;28;20394;-43
2023/08/29 05:19:44;;;;;;;11.07;4.45;;;;;;;14.11;90.43;100518.34;5017219;28;20049;-45
2023/08/29 05:22:11;;;;;;;9.25;4.60;;;;;;;14.06;90.47;100527.00;5011782;28;20068;-45
2023/08/29 05:24:38;;;;;;;12.35;5.20;;;;;;;14.00;90.78;100532.84;5011546;28;20061;-45
2023/08/29 05:27:05;;;;;;;13.82;4.10;;;;;;;13.98;91.02;100521.31;5011752;28;20068;-45
2023/08/29 05:29:32;;;;;;;11.35;4.28;;;;;;;13.99;91.04;100528.50;5010318;28;20052;-44
2023/08/29 05:31:59;;;;;;;8.77;4.10;;;;;;;13.96;90.91;100528.41;5011806;28;20088;-44
2023/08/29 05:34:26;;;;;;;7.30;3.80;;;;;;;13.94;91.04;100530.78;5011632;28;20050;-45
2023/08/29 05:36:53;;;;;;;8.77;4.18;;;;;;;13.95;91.14;100540.75;5010266;28;20137;-44
2023/08/29 05:39:21;;;;;;;10.05;4.55;;;;;;;13.92;91.31;100528.38;5010353;28;20072;-45
2023/08/29 05:41:48;;;;;;;10.25;4.53;;;;;;;13.88;91.23;100533.06;5010969;28;20092;-46
2023/08/29 05:44:15;;;;;;;11.63;4.90;;;;;;;13.86;91.39;100529.06;5010798;28;20092;-44
2023/08/29 05:46:42;;;;;;;15.38;4.90;;;;;;;13.87;91.80;100525.88;5011041;28;20050;-45
2023/08/29 05:49:09;;;;;;;12.73;4.50;;;;;;;13.88;92.08;100526.69;5011531;28;20422;-45
2023/08/29 05:51:37;;;;;;;6.85;4.20;;;;;;;13.88;92.11;100524.72;5010123;28;20500;-45
2023/08/29 05:54:05;;;;;;;13.38;4.40;;;;;;;13.92;92.25;100533.94;5011536;28;20049;-44
2023/08/29 05:56:32;;;;;;;8.05;4.90;;;;;;;13.95;92.18;100535.97;5011175;28;20403;-46
2023/08/29 05:58:58;;;;;;;11.43;4.43;;;;;;;13.99;92.22;100536.84;5011103;28;20490;-45
2023/08/29 06:01:26;;;;;;;7.93;4.05;;;;;;;14.04;92.27;100535.72;5011000;28;20093;-45
2023/08/29 06:03:53;;;;;;;10.85;4.88;;;;;;;14.05;92.38;100528.97;5011141;28;20130;-47
2023/08/29 06:06:21;;;;;;;12.25;5.25;;;;;;;14.05;92.33;100526.19;5010997;28;20609;-44
2023/08/29 06:08:48;;;;;;;10.30;4.68;;;;;;;14.09;92.24;100537.38;5011816;28;20045;-44
2023/08/29 06:11:15;;;;;;;10.23;4.45;;;;;;;14.13;92.38;100538.25;5011157;28;20128;-44
2023/08/29 06:13:42;;;;;;;8.05;3.70;;;;;;;14.16;92.33;100537.50;5010967;28;20050;-44
2023/08/29 06:16:09;;;;;;;8.85;4.15;;;;;;;14.15;92.37;100535.88;5011202;28;20060;-44
2023/08/29 06:18:36;;;;;;;13.27;4.75;;;;;;;14.15;92.41;100539.47;5010938;28;20034;-45
2023/08/29 06:21:05;;;;;;;14.70;4.10;;;;;;;14.14;92.38;100534.28;5011061;28;20054;-44
2023/08/29 06:23:34;;;;;;;10.70;3.83;;;;;;;14.15;92.56;100535.88;5010554;28;20054;-44
2023/08/29 06:26:02;;;;;;;7.50;4.32;;;;;;;14.14;92.47;100537.06;5011679;28;20065;-43
2023/08/29 06:28:29;;;;;;;8.63;3.97;;;;;;;14.10;92.65;100536.19;5008920;28;20046;-45
2023/08/29 06:30:56;;;;;;;8.98;4.55;;;;;;;14.11;92.60;100541.38;5003964;28;20116;-44
2023/08/29 06:33:23;;;;;;;10.63;4.13;;;;;;;14.11;92.57;100526.69;5010840;28;20042;-43
2023/08/29 06:35:50;;;;;;;7.25;4.13;;;;;;;14.11;92.80;100535.81;5007957;28;20550;-49
2023/08/29 06:38:17;;;;;;;7.82;4.53;;;;;;;14.12;92.73;100536.63;5005788;28;20048;-44
2023/08/29 06:40:44;;;;;;;16.17;5.57;;;;;;;14.11;92.80;100535.81;5010167;28;20068;-46
2023/08/29 06:43:11;;;;;;;12.25;4.93;;;;;;;14.11;92.72;100532.25;5013440;28;20487;-47
2023/08/29 06:45:38;;;;;;;8.18;3.60;;;;;;;14.13;92.97;100532.69;5010050;28;20526;-46
2023/08/29 06:48:04;;;;;;;11.45;3.90;;;;;;;14.15;92.89;100536.69;5009947;28;20518;-44
2023/08/29 06:50:33;;;;;;;8.85;3.92;;;;;;;14.17;92.68;100530.72;5007736;28;20046;-46
2023/08/29 06:52:59;;;;;;;11.20;3.60;;;;;;;14.16;92.63;100543.06;5010826;28;20123;-44
2023/08/29 06:55:27;;;;;;;10.68;3.60;;;;;;;14.19;92.60;100529.19;5013645;28;20046;-44
2023/08/29 06:57:54;;;;;;;7.65;3.33;;;;;;;14.22;92.58;100535.97;5012464;28;20054;-46
2023/08/29 07:00:23;;;;;;;11.60;3.70;;;;;;;14.26;92.50;100529.31;5014629;28;20046;-44
2023/08/29 07:02:52;;;;;;;14.02;3.65;;;;;;;14.34;92.31;100525.47;5012409;28;20058;-45
2023/08/29 07:05:20;;;;;;;8.73;3.00;;;;;;;14.35;92.20;100523.50;5014055;28;20060;-45
2023/08/29 07:07:47;;;;;;;11.18;3.10;;;;;;;14.37;91.84;100529.50;5012450;28;20049;-45
2023/08/29 07:10:13;;;;;;;6.82;3.13;;;;;;;14.40;91.69;100525.97;5012523;28;20491;-45
2023/08/29 07:12:42;;;;;;;7.63;3.17;;;;;;;14.41;91.52;100519.19;5012933;28;20511;-44
2023/08/29 07:15:09;;;;;;;7.10;3.42;;;;;;;14.44;91.33;100526.81;5010708;28;20058;-45
2023/08/29 07:17:36;;;;;;;6.53;3.35;;;;;;;14.48;91.18;100534.03;5022510;28;20119;-47
2023/08/29 07:20:10;;;;;;;11.52;3.05;;;;;;;14.52;91.23;100518.19;5011040;28;20050;-45
2023/08/29 07:22:40;;;;;;;7.15;3.50;;;;;;;14.55;91.13;100514.63;5017848;28;20100;-44
2023/08/29 07:25:07;;;;;;;6.38;2.60;;;;;;;14.59;91.01;100523.03;5013633;28;20038;-43
2023/08/29 07:27:34;;;;;;;4.53;2.65;;;;;;;14.63;90.91;100518.31;5013411;28;20499;-45
2023/08/29 07:30:03;;;;;;;8.60;2.95;;;;;;;14.68;90.95;100523.56;5013585;28;20038;-43
2023/08/29 07:32:30;;;;;;;4.32;3.13;;;;;;;14.71;90.50;100511.66;5014383;28;20042;-44
2023/08/29 07:34:58;;;;;;;8.93;2.83;;;;;;;14.78;90.55;100516.50;5021771;28;20057;-44
2023/08/29 07:37:25;;;;;;;10.68;3.10;;;;;;;14.82;90.38;100525.72;5011567;28;20073;-48
2023/08/29 07:39:52;;;;;;;10.82;2.90;;;;;;;14.87;90.25;100520.63;5012976;28;20046;-43
2023/08/29 07:42:19;;;;;;;6.88;2.70;;;;;;;14.92;90.07;100525.06;5013567;28;20050;-43
2023/08/29 07:44:45;;;;;;;5.35;2.35;;;;;;;14.98;90.18;100529.94;5003378;28;20053;-44
2023/08/29 07:47:12;;;;;;;7.53;3.05;;;;;;;14.97;89.89;100533.88;5011492;28;20455;-44
2023/08/29 07:49:42;;;;;;;13.02;3.22;;;;;;;15.06;90.09;100528.03;5013489;28;20045;-43
2023/08/29 07:52:09;;;;;;;6.35;3.63;;;;;;;15.10;89.79;100526.06;5011969;28;20049;-52
2023/08/29 07:54:36;;;;;;;7.75;2.60;;;;;;;15.18;89.80;100534.13;5000186;28;20404;-43
2023/08/29 07:57:04;;;;;;;5.72;2.53;;;;;;;15.22;89.50;100534.97;5013056;28;20054;-44
2023/08/29 07:59:31;;;;;;;7.00;2.40;;;;;;;15.26;89.15;100532.22;5013057;28;20376;-44
2023/08/29 08:01:58;;;;;;;6.97;3.00;;;;;;;15.23;89.08;100533.78;5012912;28;20064;-44
2023/08/29 08:04:25;;;;;;;7.82;2.65;;;;;;;15.18;88.93;100533.31;5012824;28;20042;-43
2023/08/29 08:06:53;;;;;;;4.70;2.45;;;;;;;15.19;88.94;100524.59;5012359;28;20392;-43
2023/08/29 08:09:20;;;;;;;4.55;2.67;;;;;;;15.22;88.91;100528.59;5012644;28;20566;-44
2023/08/29 08:11:46;;;;;;;6.13;2.33;;;;;;;15.26;88.72;100535.00;5007242;28;20049;-43
2023/08/29 08:14:13;;;;;;;5.85;2.33;;;;;;;15.31;88.71;100526.28;5011274;28;20053;-43
2023/08/29 08:16:41;;;;;;;12.73;4.40;;;;;;;15.39;88.67;100524.38;5012378;28;20096;-43
2023/08/29 08:19:10;;;;;;;6.15;2.05;;;;;;;15.46;88.51;100516.91;5005426;28;20165;-43
2023/08/29 08:21:37;;;;;;;6.32;2.40;;;;;;;15.56;88.27;100521.00;5007608;28;20058;-52
2023/08/29 08:24:07;;;;;;;8.73;2.38;;;;;;;15.67;88.09;100519.91;5010651;28;20132;-46
2023/08/29 08:26:35;;;;;;;4.03;2.47;;;;;;;15.81;87.92;100510.84;5011358;28;20048;-43
2023/08/29 08:29:04;;;;;;;7.43;2.38;;;;;;;15.91;87.84;100518.53;5006028;28;20097;-43
2023/08/29 08:31:31;;;;;;;7.78;2.63;;;;;;;15.97;87.63;100518.97;5009548;28;20116;-43
2023/08/29 08:33:58;;;;;;;6.30;2.20;;;;;;;16.10;87.47;100512.69;5011521;28;20133;-42
2023/08/29 08:36:25;;;;;;;5.88;2.08;;;;;;;16.22;87.28;100508.78;5004877;28;20473;-44
2023/08/29 08:38:52;;;;;;;7.97;2.25;;;;;;;16.30;86.90;100510.44;5010728;28;20042;-43
2023/08/29 08:41:20;;;;;;;4.60;2.33;;;;;;;16.32;86.52;100511.66;5012444;28;20396;-44
2023/08/29 08:43:48;;;;;;;5.18;2.70;;;;;;;16.37;85.96;100518.84;5011256;28;20106;-44
2023/08/29 08:46:16;;;;;;;5.57;2.28;;;;;;;16.49;85.69;100523.31;5010965;28;20136;-43
2023/08/29 08:48:43;;;;;;;4.95;2.38;;;;;;;16.55;85.06;100528.16;5012301;28;20435;-43
2023/08/29 08:51:12;;;;;;;8.13;2.05;;;;;;;16.55;84.37;100519.78;5011787;28;20047;-43
2023/08/29 08:53:40;;;;;;;4.75;1.80;;;;;;;16.67;84.29;100524.25;5012131;28;20049;-47
2023/08/29 08:56:08;;;;;;;7.07;2.50;;;;;;;16.81;83.52;100525.09;5010915;28;20050;-44
2023/08/29 08:58:36;;;;;;;7.43;2.40;;;;;;;17.00;83.15;100521.19;5012363;28;20056;-43
2023/08/29 09:01:04;;;;;;;8.00;2.30;;;;;;;17.22;82.30;100534.06;5011540;28;20050;-43
2023/08/29 09:03:31;;;;;;;5.32;2.08;;;;;;;17.32;81.37;100529.69;5011604;28;20133;-46
2023/08/29 09:05:58;;;;;;;7.95;1.95;;;;;;;17.43;81.10;100528.53;5010533;28;20524;-43
2023/08/29 09:08:25;;;;;;;4.85;1.67;;;;;;;17.57;80.55;100528.59;5011654;28;20045;-43
2023/08/29 09:10:53;;;;;;;4.68;1.70;;;;;;;17.64;79.07;100527.78;5013550;28;20042;-45
2023/08/29 09:13:20;;;;;;;4.55;2.05;;;;;;;17.58;79.09;100512.56;5011406;28;20061;-43
2023/08/29 09:15:47;;;;;;;6.32;1.70;;;;;;;17.59;78.98;100533.78;5010627;28;20049;-44
2023/08/29 09:18:24;;;;;;;5.32;2.17;;;;;;;17.41;78.85;100525.31;5010381;28;20050;-43
2023/08/29 09:20:53;;;;;;;5.03;1.52;;;;;;;17.18;78.54;100530.47;5010514;28;20145;-44
2023/08/29 09:23:24;;;;;;;6.75;2.22;;;;;;;17.08;78.75;100527.63;5010514;28;20149;-44
2023/08/29 09:25:53;;;;;;;7.78;3.92;;;;;;;17.11;79.05;100519.22;5009969;28;20136;-44
2023/08/29 09:28:21;;;;;;;7.57;2.00;;;;;;;17.17;78.40;100526.06;5010233;28;20050;-45
2023/08/29 09:30:49;;;;;;;9.38;1.85;;;;;;;17.15;78.26;100522.84;5011675;28;20066;-44
2023/08/29 09:33:20;;;;;;;6.55;2.03;;;;;;;17.11;78.23;100526.81;5012059;28;20049;-46
2023/08/29 09:35:49;;;;;;;5.18;1.70;;;;;;;17.06;77.71;100530.81;5010494;28;20073;-44
2023/08/29 09:38:20;;;;;;;6.15;1.92;;;;;;;16.99;77.28;100530.78;5011189;28;20060;-44
2023/08/29 09:40:55;;;;;;;4.43;1.60;;;;;;;16.92;76.90;100531.56;5011121;28;20046;-44
2023/08/29 09:43:22;;;;;;;7.35;1.90;;;;;;;16.95;76.86;100529.97;5011413;28;20049;-44
2023/08/29 09:45:53;;;;;;;4.88;1.52;;;;;;;17.20;75.94;100542.06;5009682;28;20099;-44
2023/08/29 09:48:20;;;;;;;6.20;2.03;;;;;;;17.26;75.54;100540.47;5011943;28;20058;-44
2023/08/29 09:50:48;;;;;;;13.10;3.00;;;;;;;17.25;75.25;100535.28;5011684;28;20048;-46
2023/08/29 09:53:17;;;;;;;9.57;1.42;;;;;;;17.55;75.01;100542.16;5011255;28;20084;-44
2023/08/29 09:55:59;;;;;;;4.00;1.42;;;;;;;17.75;74.25;100539.00;5003498;28;20041;-44
2023/08/29 09:58:28;;;;;;;6.88;1.77;;;;;;;17.67;73.75;100540.19;5002946;28;20038;-44
2023/08/29 10:00:58;;;;;;;5.65;1.70;;;;;;;17.56;73.81;100532.56;5009590;28;20365;-44
2023/08/29 10:03:25;;;;;;;8.73;2.25;;;;;;;17.63;73.85;100535.38;5011434;28;20045;-44
2023/08/29 10:05:55;;;;;;;4.20;1.60;;;;;;;17.80;73.69;100525.41;5011537;28;20038;-43
2023/08/29 10:08:41;;;;;;;3.90;1.73;;;;;;;18.12;72.78;100520.59;5007886;28;20502;-43
2023/08/29 10:11:08;;;;;;;5.88;2.28;;;;;;;18.49;71.52;100517.34;5011613;28;20049;-44
2023/08/29 10:13:36;;;;;;;6.63;1.70;;;;;;;18.52;70.93;100522.16;5009025;28;20045;-44
2023/08/29 10:16:04;;;;;;;15.15;2.33;;;;;;;18.48;70.96;100515.75;5011194;28;20050;-44
2023/08/29 10:18:33;;;;;;;5.38;1.90;;;;;;;18.56;70.40;100511.72;5009796;28;20051;-45
2023/08/29 10:21:02;;;;;;;6.18;1.90;;;;;;;18.52;69.89;100518.56;5010944;28;20057;-44
2023/08/29 10:23:30;;;;;;;8.90;2.90;;;;;;;18.61;69.36;100524.56;5009830;28;20046;-43
2023/08/29 10:26:00;;;;;;;7.90;2.38;;;;;;;18.99;68.06;100525.59;5011073;28;20065;-44
2023/08/29 10:28:29;;;;;;;9.02;2.53;;;;;;;19.12;66.75;100521.13;5009694;28;20045;-45
2023/08/29 10:31:00;;;;;;;8.25;2.20;;;;;;;19.17;66.78;100521.50;5014964;28;20049;-49
2023/08/29 10:33:28;;;;;;;7.88;3.15;;;;;;;19.15;66.57;100525.91;5001285;28;20038;-44
2023/08/29 10:35:55;;;;;;;9.57;2.70;;;;;;;19.21;66.09;100525.09;5014194;28;20041;-44
2023/08/29 10:38:25;;;;;;;9.05;2.88;;;;;;;19.52;65.57;100520.53;5013380;28;20575;-44
2023/08/29 10:41:06;;;;;;;7.30;2.55;;;;;;;20.01;65.00;100517.31;5015032;28;20057;-44
2023/08/29 10:43:34;;;;;;;10.32;1.88;;;;;;;20.43;62.94;100524.63;5014546;28;20494;-46
2023/08/29 10:46:11;;;;;;;9.52;1.67;;;;;;;20.48;62.44;100524.16;5012785;28;20530;-46
2023/08/29 10:48:42;;;;;;;13.88;2.63;;;;;;;20.21;61.90;100520.38;5010816;28;20068;-44
2023/08/29 10:51:19;;;;;;;7.68;2.20;;;;;;;19.86;62.36;100504.63;5010752;28;20122;-44
2023/08/29 10:54:05;;;;;;;7.05;2.20;;;;;;;19.70;62.65;100512.78;5014185;28;20054;-47
2023/08/29 10:56:41;;;;;;;12.52;2.60;;;;;;;19.76;62.14;100510.31;5004351;28;20061;-46
2023/08/29 10:59:34;;;;;;;11.82;3.30;;;;;;;19.95;61.51;100504.16;5011141;28;20132;-46
2023/08/29 11:02:30;;;;;;;9.90;2.20;;;;;;;20.04;60.84;100502.44;5013918;28;20058;-45
2023/08/29 11:05:03;;;;;;;5.03;1.65;;;;;;;20.02;60.71;100493.63;5006137;28;20046;-46
2023/08/29 11:07:31;;;;;;;7.70;1.55;;;;;;;19.92;59.94;100504.97;5013797;28;20049;-43
2023/08/29 11:10:18;;;;;;;6.45;2.03;;;;;;;19.85;60.37;100496.63;5015369;28;20144;-44
2023/08/29 11:13:06;;;;;;;8.68;2.13;;;;;;;19.81;59.93;100495.84;5003184;28;20067;-44
2023/08/29 11:15:48;;;;;;;6.35;2.00;;;;;;;19.78;59.62;100491.84;5014374;28;20074;-44
2023/08/29 11:18:26;;;;;;;7.93;2.22;;;;;;;19.62;58.64;100494.38;5013740;28;20054;-44
2023/08/29 11:20:56;;;;;;;8.73;2.88;;;;;;;19.52;58.51;100500.06;5012734;28;20141;-44
2023/08/29 11:23:23;;;;;;;13.52;2.25;;;;;;;19.38;58.19;100503.75;5013930;28;20052;-43
2023/08/29 11:25:50;;;;;;;7.72;2.17;;;;;;;19.28;58.17;100501.78;5004134;28;20492;-43
2023/08/29 11:28:17;;;;;;;8.18;1.85;;;;;;;19.17;57.43;100499.03;5006449;28;20053;-44